createdAt,value
2022-10-24T00:01:14.966Z,101355.84
2022-10-24T00:03:42.376Z,101356.47
2022-10-24T00:06:10.379Z,101360.25
2022-10-24T00:08:38.236Z,101355.03
2022-10-24T00:11:13.453Z,101360.50
2022-10-24T00:13:41.480Z,101352.28
2022-10-24T00:16:08.896Z,101353.94
2022-10-24T00:18:36.292Z,101357.50
2022-10-24T00:21:04.075Z,101355.84
2022-10-24T00:23:31.500Z,101353.94
2022-10-24T00:26:04.090Z,101334.78
2022-10-24T00:28:32.625Z,101329.53
2022-10-24T00:31:00.104Z,101324.03
2022-10-24T00:33:27.529Z,101325.91
2022-10-24T00:35:54.920Z,101336.88
2022-10-24T00:38:22.314Z,101340.69
2022-10-24T00:40:52.782Z,101347.00
2022-10-24T00:43:22.397Z,101350.56
2022-10-24T00:45:54.965Z,101341.53
2022-10-24T00:48:37.707Z,101337.97
2022-10-24T00:51:05.175Z,101339.00
2022-10-24T00:53:33.655Z,101335.22
2022-10-24T00:56:02.383Z,101331.41
2022-10-24T00:58:30.917Z,101327.84
2022-10-24T01:00:58.491Z,101335.44
2022-10-24T01:03:26.170Z,101333.53
2022-10-24T01:05:59.601Z,101338.19
2022-10-24T01:08:26.886Z,101340.69
2022-10-24T01:11:00.133Z,101359.00
2022-10-24T01:13:33.138Z,101360.69
2022-10-24T01:16:12.670Z,101354.41
2022-10-24T01:18:49.540Z,101351.88
2022-10-24T01:21:24.888Z,101351.03
2022-10-24T01:24:01.284Z,101346.41
2022-10-24T01:26:50.222Z,101338.41
2022-10-24T01:29:17.529Z,101347.44
2022-10-24T01:31:52.429Z,101329.59
2022-10-24T01:34:55.137Z,101325.78
2022-10-24T01:37:29.548Z,101323.88
2022-10-24T01:39:57.973Z,101337.09
2022-10-24T01:42:25.241Z,101333.53
2022-10-24T01:44:54.485Z,101332.09
2022-10-24T01:47:33.375Z,101331.50
2022-10-24T01:50:06.157Z,101318.88
2022-10-24T01:52:34.782Z,101322.44
2022-10-24T01:55:02.231Z,101318.88
2022-10-24T01:57:32.844Z,101314.22
2022-10-24T02:00:00.240Z,101315.06
2022-10-24T02:02:28.557Z,101308.72
2022-10-24T02:05:10.057Z,101304.13
2022-10-24T02:07:37.584Z,101312.94
2022-10-24T02:10:12.799Z,101309.59
2022-10-24T02:12:43.161Z,101304.72
2022-10-24T02:15:21.784Z,101289.34
2022-10-24T02:17:49.160Z,101293.50
2022-10-24T02:20:16.615Z,101286.59
2022-10-24T02:23:06.242Z,101286.59
2022-10-24T02:25:35.025Z,101280.91
2022-10-24T02:28:02.326Z,101289.94
2022-10-24T02:30:29.676Z,101288.88
2022-10-24T02:32:58.343Z,101283.63
2022-10-24T02:35:30.461Z,101277.56
2022-10-24T02:38:01.098Z,101270.16
2022-10-24T02:40:28.612Z,101269.13
2022-10-24T02:42:56.113Z,101273.13
2022-10-24T02:45:23.512Z,101267.66
2022-10-24T02:47:50.932Z,101272.31
2022-10-24T02:50:18.342Z,101267.66
2022-10-24T02:52:46.753Z,101266.00
2022-10-24T02:55:14.370Z,101269.56
2022-10-24T02:57:44.070Z,101270.66
2022-10-24T03:00:12.014Z,101268.50
2022-10-24T03:02:39.429Z,101260.53
2022-10-24T03:05:07.242Z,101261.56
2022-10-24T03:07:34.618Z,101259.44
2022-10-24T03:10:02.085Z,101255.03
2022-10-24T03:12:29.498Z,101252.91
2022-10-24T03:14:56.876Z,101260.28
2022-10-24T03:17:24.198Z,101260.28
2022-10-24T03:19:51.599Z,101263.88
2022-10-24T03:22:18.936Z,101263.03
2022-10-24T03:24:55.130Z,101259.44
2022-10-24T03:27:23.047Z,101257.78
2022-10-24T03:29:50.523Z,101255.88
2022-10-24T03:32:17.983Z,101264.09
2022-10-24T03:34:45.418Z,101260.53
2022-10-24T03:37:12.850Z,101255.88
2022-10-24T03:39:40.260Z,101256.69
2022-10-24T03:42:07.658Z,101256.69
2022-10-24T03:44:35.072Z,101255.88
2022-10-24T03:47:02.536Z,101266.81
2022-10-24T03:49:30.082Z,101274.00
2022-10-24T03:51:57.451Z,101275.88
2022-10-24T03:54:24.895Z,101273.13
2022-10-24T03:56:52.343Z,101275.88
2022-10-24T03:59:19.771Z,101272.31
2022-10-24T04:01:47.191Z,101269.34
2022-10-24T04:04:14.612Z,101262.19
2022-10-24T04:06:42.610Z,101266.81
2022-10-24T04:09:09.996Z,101261.34
2022-10-24T04:11:37.444Z,101268.50
2022-10-24T04:14:05.365Z,101259.44
2022-10-24T04:16:34.784Z,101249.34
2022-10-24T04:19:02.381Z,101244.91
2022-10-24T04:21:29.758Z,101244.09
2022-10-24T04:23:57.146Z,101246.84
2022-10-24T04:26:24.597Z,101248.97
2022-10-24T04:28:52.025Z,101236.31
2022-10-24T04:31:22.548Z,101239.66
2022-10-24T04:33:51.214Z,101240.75
2022-10-24T04:36:19.168Z,101250.88
2022-10-24T04:38:46.812Z,101262.66
2022-10-24T04:41:14.340Z,101272.53
2022-10-24T04:43:41.763Z,101278.59
2022-10-24T04:46:09.206Z,101279.09
2022-10-24T04:48:37.259Z,101277.78
2022-10-24T04:51:04.842Z,101273.38
2022-10-24T04:53:32.222Z,101270.88
2022-10-24T04:56:02.636Z,101269.44
2022-10-24T04:58:29.997Z,101252.16
2022-10-24T05:00:57.418Z,101258.72
2022-10-24T05:03:24.803Z,101249.69
2022-10-24T05:05:52.207Z,101256.22
2022-10-24T05:08:19.634Z,101248.81
2022-10-24T05:10:47.041Z,101244.44
2022-10-24T05:13:14.529Z,101243.13
2022-10-24T05:15:42.356Z,101233.00
2022-10-24T05:18:09.753Z,101231.94
2022-10-24T05:20:37.163Z,101229.44
2022-10-24T05:23:04.667Z,101241.22
2022-10-24T05:25:32.255Z,101236.59
2022-10-24T05:27:59.636Z,101238.63
2022-10-24T05:30:27.078Z,101242.41
2022-10-24T05:32:54.496Z,101247.28
2022-10-24T05:35:21.837Z,101247.53
2022-10-24T05:37:49.196Z,101237.66
2022-10-24T05:40:16.570Z,101234.06
2022-10-24T05:42:44.310Z,101243.13
2022-10-24T05:45:11.966Z,101244.81
2022-10-24T05:47:39.355Z,101231.13
2022-10-24T05:50:07.311Z,101227.50
2022-10-24T05:52:36.462Z,101239.56
2022-10-24T05:55:07.634Z,101237.03
2022-10-24T05:57:36.901Z,101234.91
2022-10-24T06:00:08.139Z,101234.91
2022-10-24T06:02:42.002Z,101240.16
2022-10-24T06:05:09.784Z,101239.31
2022-10-24T06:07:37.304Z,101239.94
2022-10-24T06:10:05.633Z,101244.81
2022-10-24T06:12:33.127Z,101252.16
2022-10-24T06:15:00.584Z,101253.03
2022-10-24T06:17:27.995Z,101246.47
2022-10-24T06:19:55.393Z,101251.94
2022-10-24T06:22:27.753Z,101244.53
2022-10-24T06:24:57.977Z,101238.25
2022-10-24T06:27:25.402Z,101238.25
2022-10-24T06:29:52.788Z,101231.94
2022-10-24T06:32:20.211Z,101239.31
2022-10-24T06:34:47.626Z,101237.41
2022-10-24T06:37:14.988Z,101234.44
2022-10-24T06:39:42.370Z,101229.19
2022-10-24T06:42:09.772Z,101237.41
2022-10-24T06:44:38.558Z,101240.97
2022-10-24T06:47:06.397Z,101246.47
2022-10-24T06:49:33.864Z,101256.09
2022-10-24T06:52:01.259Z,101263.25
2022-10-24T06:54:30.311Z,101267.44
2022-10-24T06:56:58.082Z,101268.03
2022-10-24T06:59:25.712Z,101257.56
2022-10-24T07:01:53.307Z,101264.91
2022-10-24T07:04:20.731Z,101262.19
2022-10-24T07:06:48.170Z,101273.13
2022-10-24T07:09:15.902Z,101264.69
2022-10-24T07:11:44.088Z,101263.88
2022-10-24T07:14:11.811Z,101253.72
2022-10-24T07:16:39.330Z,101251.81
2022-10-24T07:19:06.872Z,101249.09
2022-10-24T07:21:34.373Z,101249.69
2022-10-24T07:24:01.877Z,101261.50
2022-10-24T07:26:29.461Z,101258.53
2022-10-24T07:31:33.777Z,101262.94
2022-10-24T07:34:02.545Z,101260.19
2022-10-24T07:36:30.679Z,101263.56
2022-10-24T07:38:58.387Z,101260.19
2022-10-24T07:41:29.188Z,101258.06
2022-10-24T07:43:57.501Z,101262.72
2022-10-24T07:46:25.193Z,101273.47
2022-10-24T07:48:52.854Z,101259.75
2022-10-24T07:51:20.444Z,101260.59
2022-10-24T07:53:47.855Z,101274.28
2022-10-24T07:56:15.856Z,101273.47
2022-10-24T07:58:43.602Z,101271.53
2022-10-24T08:01:22.601Z,101268.22
2022-10-24T08:03:50.065Z,101274.06
2022-10-24T08:06:19.279Z,101263.94
2022-10-24T08:08:46.883Z,101260.38
2022-10-24T08:11:16.544Z,101263.09
2022-10-24T08:13:44.083Z,101263.94
2022-10-24T08:16:12.607Z,101281.19
2022-10-24T08:18:40.170Z,101290.22
2022-10-24T08:21:09.186Z,101292.97
2022-10-24T08:23:37.955Z,101286.66
2022-10-24T08:26:11.828Z,101286.91
2022-10-24T08:28:39.367Z,101296.78
2022-10-24T08:31:17.422Z,101283.09
2022-10-24T08:33:45.700Z,101285.63
2022-10-24T08:36:24.798Z,101285.00
2022-10-24T08:38:52.207Z,101288.34
2022-10-24T08:41:25.332Z,101289.41
2022-10-24T08:43:53.721Z,101288.34
2022-10-24T08:46:34.830Z,101297.63
2022-10-24T08:49:46.437Z,101294.88
2022-10-24T08:52:27.630Z,101297.41
2022-10-24T08:54:55.648Z,101285.34
2022-10-24T08:57:25.436Z,101273.56
2022-10-24T08:59:54.188Z,101278.22
2022-10-24T09:02:24.096Z,101266.44
2022-10-24T09:04:56.427Z,101263.44
2022-10-24T09:09:57.056Z,101260.69
2022-10-24T09:12:26.283Z,101267.03
2022-10-24T09:14:56.811Z,101265.13
2022-10-24T09:17:28.514Z,101266.78
2022-10-24T09:20:02.842Z,101270.38
2022-10-24T09:22:32.423Z,101271.19
2022-10-24T09:25:02.291Z,101262.16
2022-10-24T09:27:32.355Z,101254.75
2022-10-24T09:29:59.840Z,101251.19
2022-10-24T09:32:31.461Z,101244.63
2022-10-24T09:35:06.393Z,101251.19
2022-10-24T09:37:44.407Z,101249.28
2022-10-24T09:40:25.390Z,101242.13
2022-10-24T09:43:17.341Z,101233.09
2022-10-24T09:46:04.036Z,101221.91
2022-10-24T09:48:49.013Z,101230.94
2022-10-24T09:51:25.403Z,101246.78
2022-10-24T09:54:05.376Z,101243.44
2022-10-24T09:56:34.952Z,101215.22
2022-10-24T09:59:37.807Z,101214.13
2022-10-24T10:02:34.582Z,101221.06
2022-10-24T10:05:04.936Z,101235.59
2022-10-24T10:07:37.463Z,101236.66
2022-10-24T10:10:22.364Z,101236.41
2022-10-24T10:13:09.697Z,101227.38
2022-10-24T10:15:39.790Z,101217.25
2022-10-24T10:18:29.444Z,101222.94
2022-10-24T10:21:09.605Z,101232.63
2022-10-24T10:23:39.147Z,101229.88
2022-10-24T10:26:18.388Z,101225.22
2022-10-24T10:29:05.546Z,101224.41
2022-10-24T10:31:40.458Z,101232.63
2022-10-24T10:34:35.829Z,101231.53
2022-10-24T10:37:09.249Z,101214.28
2022-10-24T10:40:14.574Z,101216.19
2022-10-24T10:42:44.885Z,101215.25
2022-10-24T10:45:30.841Z,101195.22
2022-10-24T10:48:15.716Z,101196.53
2022-10-24T10:50:49.106Z,101205.81
2022-10-24T10:53:35.009Z,101195.91
2022-10-24T10:56:23.303Z,101194.03
2022-10-24T10:59:02.540Z,101182.00
2022-10-24T11:01:49.744Z,101178.44
2022-10-24T11:04:41.690Z,101178.44
2022-10-24T11:07:25.368Z,101185.81
2022-10-24T11:10:13.119Z,101178.44
2022-10-24T11:12:44.084Z,101170.81
2022-10-24T11:15:21.704Z,101169.97
2022-10-24T11:18:04.528Z,101174.59
2022-10-24T11:20:34.872Z,101181.75
2022-10-24T11:23:19.942Z,101171.88
2022-10-24T11:25:52.593Z,101158.16
2022-10-24T11:28:41.450Z,101151.84
2022-10-24T11:31:13.558Z,101147.78
2022-10-24T11:33:53.738Z,101148.88
2022-10-24T11:36:26.109Z,101147.78
2022-10-24T11:39:24.135Z,101141.50
2022-10-24T11:42:28.994Z,101135.19
2022-10-24T11:45:53.692Z,101140.44
2022-10-24T11:48:36.034Z,101125.88
2022-10-24T11:51:21.991Z,101123.41
2022-10-24T11:53:58.589Z,101120.41
2022-10-24T11:56:35.035Z,101112.44
2022-10-24T11:59:06.666Z,101108.63
2022-10-24T12:02:13.029Z,101108.84
2022-10-24T12:05:01.606Z,101110.31
2022-10-24T12:07:40.562Z,101099.34
2022-10-24T12:10:49.324Z,101084.78
2022-10-24T12:13:50.720Z,101076.84
2022-10-24T12:16:21.177Z,101075.75
2022-10-24T12:18:52.479Z,101075.75
2022-10-24T12:21:25.880Z,101080.41
2022-10-24T12:24:00.097Z,101091.13
2022-10-24T12:26:31.222Z,101075.50
2022-10-24T12:29:02.635Z,101074.41
2022-10-24T12:31:33.980Z,101053.59
2022-10-24T12:34:19.760Z,101037.38
2022-10-24T12:37:09.608Z,101056.56
2022-10-24T12:39:47.156Z,101056.56
2022-10-24T12:42:24.282Z,101054.66
2022-10-24T12:44:59.981Z,101032.50
2022-10-24T12:47:31.239Z,101027.84
2022-10-24T12:50:00.005Z,101034.41
2022-10-24T12:52:33.380Z,101037.16
2022-10-24T12:55:00.758Z,101020.72
2022-10-24T12:57:37.121Z,101008.06
2022-10-24T13:00:19.981Z,101017.97
2022-10-24T13:03:04.726Z,101027.03
2022-10-24T13:05:56.918Z,101009.75
2022-10-24T13:08:48.361Z,101001.53
2022-10-24T13:11:46.402Z,101019.03
2022-10-24T13:14:25.851Z,101015.25
2022-10-24T13:17:08.237Z,101016.28
2022-10-24T13:19:35.631Z,101019.03
2022-10-24T13:22:03.055Z,101002.59
2022-10-24T13:24:35.533Z,100991.63
2022-10-24T13:27:09.028Z,100997.13
2022-10-24T13:29:38.858Z,100985.94
2022-10-24T13:32:06.083Z,100984.00
2022-10-24T13:34:42.190Z,100988.66
2022-10-24T13:37:09.543Z,100992.50
2022-10-24T13:39:57.386Z,100988.91
2022-10-24T13:42:36.361Z,100987.84
2022-10-24T13:45:23.631Z,100986.75
2022-10-24T13:47:54.160Z,100984.00
2022-10-24T13:50:29.947Z,100979.38
2022-10-24T13:53:28.280Z,100967.84
2022-10-24T13:56:03.634Z,100968.66
2022-10-24T13:58:39.928Z,100970.31
2022-10-24T14:01:20.155Z,100971.16
2022-10-24T14:03:48.020Z,100955.78
2022-10-24T14:06:15.395Z,100970.31
2022-10-24T14:08:59.710Z,100966.75
2022-10-24T14:11:31.695Z,100970.91
2022-10-24T14:14:03.995Z,100977.47
2022-10-24T14:16:35.531Z,100971.16
2022-10-24T14:19:17.584Z,100967.56
2022-10-24T14:21:47.439Z,100961.38
2022-10-24T14:24:19.398Z,100974.22
2022-10-24T14:26:47.150Z,100963.78
2022-10-24T14:29:25.442Z,100955.78
2022-10-24T14:32:00.842Z,100952.00
2022-10-24T14:34:30.418Z,100949.25
2022-10-24T14:37:02.468Z,100956.38
2022-10-24T14:39:29.877Z,100961.03
2022-10-24T14:41:59.689Z,100959.13
2022-10-24T14:44:27.113Z,100957.47
2022-10-24T14:47:14.693Z,100953.88
2022-10-24T14:49:42.088Z,100955.31
2022-10-24T14:52:26.629Z,100950.31
2022-10-24T14:55:03.019Z,100961.84
2022-10-24T14:57:31.792Z,100949.84
2022-10-24T15:00:03.064Z,100959.13
2022-10-24T15:02:32.027Z,100961.84
2022-10-24T15:05:24.553Z,100956.63
2022-10-24T15:08:20.362Z,100958.28
2022-10-24T15:10:45.072Z,100953.41
2022-10-24T15:13:13.585Z,100948.97
2022-10-24T15:15:43.937Z,100958.28
2022-10-24T15:18:24.384Z,100952.00
2022-10-24T15:20:53.879Z,100952.81
2022-10-24T15:23:37.968Z,100941.84
2022-10-24T15:26:24.120Z,100946.50
2022-10-24T15:28:54.389Z,100942.69
2022-10-24T15:31:22.249Z,100939.94
2022-10-24T15:33:49.638Z,100937.19
2022-10-24T15:36:23.824Z,100940.19
2022-10-24T15:38:55.790Z,100940.19
2022-10-24T15:41:23.698Z,100930.06
2022-10-24T15:43:51.089Z,100930.91
2022-10-24T15:46:18.515Z,100942.44
2022-10-24T15:48:45.959Z,100950.66
2022-10-24T15:51:17.997Z,100952.81
2022-10-24T15:53:45.609Z,100947.34
2022-10-24T15:56:13.020Z,100958.88
2022-10-24T15:58:40.623Z,100958.88
2022-10-24T16:01:30.290Z,100944.59
2022-10-24T16:03:58.178Z,100950.66
2022-10-24T16:06:26.045Z,100947.09
2022-10-24T16:08:53.560Z,100944.59
2022-10-24T16:11:21.040Z,100956.38
2022-10-24T16:13:48.665Z,100955.56
2022-10-24T16:16:16.105Z,100949.84
2022-10-24T16:18:43.620Z,100945.41
2022-10-24T16:21:16.473Z,100941.84
2022-10-24T16:23:44.587Z,100952.56
2022-10-24T16:26:12.036Z,100957.47
2022-10-24T16:28:39.515Z,100952.81
2022-10-24T16:31:07.043Z,100947.34
2022-10-24T16:33:34.434Z,100950.06
2022-10-24T16:36:01.865Z,100949.84
2022-10-24T16:38:31.492Z,100941.63
2022-10-24T16:41:00.735Z,100938.03
2022-10-24T16:43:28.197Z,100941.63
2022-10-24T16:45:59.632Z,100935.56
2022-10-24T16:48:27.167Z,100928.97
2022-10-24T16:50:55.422Z,100922.69
2022-10-24T16:53:24.070Z,100928.75
2022-10-24T16:55:52.655Z,100928.97
2022-10-24T16:58:20.227Z,100926.25
2022-10-24T17:00:47.805Z,100926.25
2022-10-24T17:03:15.430Z,100927.91
2022-10-24T17:05:49.198Z,100928.97
2022-10-24T17:08:17.529Z,100937.78
2022-10-24T17:10:44.978Z,100928.75
2022-10-24T17:13:12.390Z,100920.53
2022-10-24T17:15:39.889Z,100933.13
2022-10-24T17:18:09.028Z,100931.47
2022-10-24T17:20:36.499Z,100926.00
2022-10-24T17:23:06.369Z,100923.25
2022-10-24T17:25:34.273Z,100936.97
2022-10-24T17:28:01.765Z,100931.47
2022-10-24T17:30:29.799Z,100940.53
2022-10-24T17:32:57.437Z,100935.88
2022-10-24T17:35:25.308Z,100944.34
2022-10-24T17:38:13.865Z,100937.19
2022-10-24T17:40:45.632Z,100940.75
2022-10-24T17:43:21.427Z,100941.84
2022-10-24T17:45:49.411Z,100944.34
2022-10-24T17:48:17.962Z,100939.13
2022-10-24T17:50:45.338Z,100947.09
2022-10-24T17:53:13.623Z,100948.16
2022-10-24T17:55:46.306Z,100956.16
2022-10-24T17:58:14.791Z,100953.41
2022-10-24T18:00:42.888Z,100956.16
2022-10-24T18:03:10.379Z,100961.63
2022-10-24T18:05:40.352Z,100947.91
2022-10-24T18:08:08.669Z,100942.69
2022-10-24T18:10:39.480Z,100957.19
2022-10-24T18:13:07.119Z,100947.09
2022-10-24T18:15:35.164Z,100955.91
2022-10-24T18:18:02.580Z,100947.41
2022-10-24T18:20:30.075Z,100945.63
2022-10-24T18:22:57.875Z,100946.56
2022-10-24T18:25:25.324Z,100944.91
2022-10-24T18:27:52.738Z,100960.50
2022-10-24T18:30:20.209Z,100963.50
2022-10-24T18:32:47.950Z,100963.72
2022-10-24T18:35:15.787Z,100961.00
2022-10-24T18:37:43.278Z,100962.31
2022-10-24T18:40:11.455Z,100961.47
2022-10-24T18:42:54.852Z,100963.38
2022-10-24T18:45:24.211Z,100964.22
2022-10-24T18:47:52.227Z,100957.09
2022-10-24T18:50:21.561Z,100955.63
2022-10-24T18:52:48.954Z,100959.00
2022-10-24T18:55:20.599Z,100956.50
2022-10-24T18:57:48.786Z,100951.00
2022-10-24T19:00:24.113Z,100956.72
2022-10-24T19:03:23.504Z,100937.56
2022-10-24T19:05:58.119Z,100943.63
2022-10-24T19:08:26.087Z,100936.47
2022-10-24T19:10:55.987Z,100946.59
2022-10-24T19:13:26.755Z,100951.00
2022-10-24T19:16:00.030Z,100946.84
2022-10-24T19:18:28.338Z,100943.03
2022-10-24T19:20:55.748Z,100952.91
2022-10-24T19:23:24.738Z,100957.56
2022-10-24T19:25:52.253Z,100951.25
2022-10-24T19:28:20.264Z,100951.25
2022-10-24T19:30:47.790Z,100947.91
2022-10-24T19:33:15.360Z,100952.31
2022-10-24T19:35:47.153Z,100945.19
2022-10-24T19:38:15.554Z,100942.22
2022-10-24T19:40:51.521Z,100946.00
2022-10-24T19:43:19.796Z,100948.75
2022-10-24T19:45:54.930Z,100957.19
2022-10-24T19:48:35.048Z,100943.03
2022-10-24T19:51:06.652Z,100946.00
2022-10-24T19:53:35.240Z,100956.72
2022-10-24T19:56:06.907Z,100950.91
2022-10-24T19:58:34.470Z,100953.41
2022-10-24T20:01:09.266Z,100951.72
2022-10-24T20:03:37.640Z,100966.00
2022-10-24T20:06:05.494Z,100960.53
2022-10-24T20:08:33.105Z,100966.00
2022-10-24T20:11:00.610Z,100959.47
2022-10-24T20:13:27.997Z,100949.25
2022-10-24T20:16:04.368Z,100961.03
2022-10-24T20:18:32.723Z,100958.28
2022-10-24T20:21:01.939Z,100965.41
2022-10-24T20:23:29.354Z,100969.00
2022-10-24T20:25:59.182Z,100959.13
2022-10-24T20:28:26.725Z,100954.47
2022-10-24T20:30:54.205Z,100956.97
2022-10-24T20:33:21.601Z,100971.75
2022-10-24T20:35:49.197Z,100967.91
2022-10-24T20:38:16.745Z,100973.91
2022-10-24T20:40:44.133Z,100975.56
2022-10-24T20:43:11.516Z,100973.06
2022-10-24T20:45:40.039Z,100970.31
2022-10-24T20:48:07.609Z,100969.50
2022-10-24T20:50:37.495Z,100975.78
2022-10-24T20:53:04.925Z,100968.44
2022-10-24T20:55:43.919Z,100971.16
2022-10-24T20:58:14.680Z,100973.63
2022-10-24T21:03:16.173Z,100957.69
2022-10-24T21:05:43.664Z,100966.75
2022-10-24T21:08:11.072Z,100964.00
2022-10-24T21:10:38.452Z,100960.44
2022-10-24T21:13:05.846Z,100970.31
2022-10-24T21:15:33.260Z,100969.50
2022-10-24T21:18:00.862Z,100966.75
2022-10-24T21:20:28.277Z,100964.00
2022-10-24T21:22:55.701Z,100968.66
2022-10-24T21:25:23.117Z,100962.94
2022-10-24T21:27:50.503Z,100963.19
2022-10-24T21:30:17.986Z,100958.53
2022-10-24T21:32:45.332Z,100969.25
2022-10-24T21:35:12.655Z,100968.44
2022-10-24T21:37:40.025Z,100967.56
2022-10-24T21:40:07.779Z,100970.56
2022-10-24T21:42:35.195Z,100966.75
2022-10-24T21:45:02.721Z,100962.34
2022-10-24T21:47:30.280Z,100961.25
2022-10-24T21:49:57.639Z,100963.41
2022-10-24T21:52:25.026Z,100969.50
2022-10-24T21:54:52.478Z,100967.56
2022-10-24T21:57:19.882Z,100967.56
2022-10-24T21:59:47.268Z,100961.25
2022-10-24T22:02:14.753Z,100972.22
2022-10-24T22:04:42.278Z,100972.22
2022-10-24T22:07:09.797Z,100977.72
2022-10-24T22:09:37.150Z,100961.50
2022-10-24T22:12:04.841Z,100955.78
2022-10-24T22:14:32.333Z,100965.09
2022-10-24T22:16:59.740Z,100968.44
2022-10-24T22:19:27.156Z,100966.75
2022-10-24T22:21:54.565Z,100954.13
2022-10-24T22:24:23.133Z,100960.91
2022-10-24T22:26:50.813Z,100968.06
2022-10-24T22:29:20.143Z,100982.84
2022-10-24T22:31:48.513Z,100980.69
2022-10-24T22:34:20.555Z,100976.06
2022-10-24T22:37:13.117Z,100958.53
2022-10-24T22:39:40.957Z,100972.22
2022-10-24T22:42:17.571Z,100979.84
2022-10-24T22:44:49.847Z,100985.34
2022-10-24T22:47:29.673Z,100985.34
2022-10-24T22:50:23.195Z,100977.13
2022-10-24T22:52:50.899Z,100972.22
2022-10-24T22:56:02.912Z,100980.69
2022-10-24T22:58:30.524Z,100987.59
2022-10-24T23:01:04.039Z,100988.91
2022-10-24T23:03:54.858Z,100978.22
2022-10-24T23:06:44.438Z,100984.75
2022-10-24T23:09:11.869Z,100982.59
2022-10-24T23:11:42.184Z,100985.34
2022-10-24T23:14:10.621Z,100979.84
2022-10-24T23:16:59.251Z,100987.25
2022-10-24T23:19:28.824Z,100997.97
2022-10-24T23:22:11.947Z,100992.72
2022-10-24T23:24:39.555Z,100990.59
2022-10-24T23:27:12.719Z,100987.00
2022-10-24T23:29:44.553Z,100988.91
2022-10-24T23:32:26.214Z,100999.03
2022-10-24T23:34:54.296Z,100995.25
2022-10-24T23:37:23.977Z,100990.00
2022-10-24T23:39:51.716Z,100993.56
2022-10-24T23:42:19.454Z,100984.50
2022-10-24T23:44:47.069Z,100995.47
2022-10-24T23:47:17.315Z,100997.97
2022-10-24T23:49:48.318Z,100994.38
2022-10-24T23:52:21.290Z,100991.63
2022-10-24T23:54:51.865Z,100997.97
2022-10-24T23:57:19.769Z,101005.34
2022-10-24T23:59:47.163Z,101006.19
